Historyczne dane pomiarowe

Dodano dane terminowe – wersja testowa.

Dane z okresu 1951-2019

Wersja bazy: 1.34 [2019-03-16, lista zmian], aktualizacja planowana na 2019-04-15

Dane meteo z obszaru Polski uzyskane na podstawie danych udostępnionych przez Instytut Meteorologii i Gospodarki Wodnej – Państwowy Instytut Badawczy.

 

Wybierz Datę:    

       

TemperaturaWilgotnośćWiatrCiśnienieOpadyŚniegCzas trwania zjawisk
 Stacja t tx tn tng RH VA  wxwx mslp ppp RRR   cm mm wxwxwxwxwxwxwx
2010-02-25 4.1 8.9 1.2 0.8-- 4.0 2.3---- 0.0-- 16---------
2010-02-26 2.9 7.9 -0.9 -1.0-- 5.7 4.0---- 1.5-- 14---------
2010-02-27 3.8 5.6 3.1 1.2-- 5.7 2.7---- 0.0-- 10---------
2010-02-28 3.0 8.5 -1.3 -2.5-- 7.0 4.3---- 0.0-- 8---------
2010-03-01 6.2 9.9 4.3 3.7-- 7.3 7.3---- 0.3-- 5---------
2010-03-02 2.5 4.5 1.4 1.3-- 6.7 6.0---- 0.0------------
2010-03-03 -0.2 4.2 -2.3 -2.7-- 7.3 4.3---- 0.4------------
2010-03-04 -0.2 3.6 -2.1 -3.0-- 1.3 2.0---- 0.0------------
2010-03-05 -2.8 -0.3 -4.4 -5.8-- 8.0 2.7---- 1.5------------
2010-03-06 -3.0 -0.3 -4.8 -4.9-- 2.7 3.3---- 0.0-- 2---------
2010-03-07 -4.4 0.3 -7.9 -7.6-- 3.3 2.0---- 0.0------------
2010-03-08 -4.7 -0.1 -7.9 -8.9-- 2.0 1.7---- 0.0------------
2010-03-09 -4.3 0.7 -8.7 -9.6-- 3.3 1.7---- 0.0------------
2010-03-10 0.1 4.5 -2.5 -5.0-- 0.3 2.0---- 0.0------------
2010-03-11 -2.1 2.9 -5.1 -5.9-- 0.3 3.0---- 0.0------------
2010-03-12 -0.9 1.8 -2.5 -4.3-- 7.0 4.0---- 1.4------------
2010-03-13 0.9 3.7 -1.1 -1.1-- 6.0 4.0---- 2.0-- 1---------
2010-03-14 0.9 3.5 -0.3 -1.3-- 6.0 3.3---- 21.5-- 2---------
2010-03-15 -3.8 0.8 -7.5 -0.6-- 2.0 3.0---- 0.3-- 19---------
2010-03-16 -1.3 2.5 -3.4 -0.6-- 2.0 4.0---- 0.0-- 13---------
2010-03-17 -0.4 3.7 -4.8 -3.2-- 5.7 4.7---- 0.0-- 12---------
2010-03-18 5.4 8.8 2.6 1.4-- 8.0 2.3---- 0.0-- 5---------
2010-03-19 8.0 14.1 2.5 -0.5-- 3.3 2.7---- 0.0------------
2010-03-20 11.0 17.5 7.8 4.1-- 8.0 2.3---- 1.5------------
2010-03-21 12.3 16.4 10.2 9.5-- 6.0 4.0---- 6.8------------
2010-03-22 7.5 12.3 5.5 4.7-- 8.0 4.0---- 0.0------------
2010-03-23 8.3 15.1 2.1 -1.3-- 5.3 3.3---- 0.0------------
2010-03-24 8.2 14.2 3.8 2.4-- 2.3 2.7---- 0.0------------
2010-03-25 10.8 19.0 3.5 1.3-- 1.7 4.3---- 0.0------------
2010-03-26 15.4 21.0 11.7 8.0-- 2.7 3.7---- 0.2------------
263.2 ms

 

Źródłem pochodzenia danych jest Instytut Meteorologii i Gospodarki Wodnej – Państwowy Instytut Badawczy. Dane Instytutu Meteorologii i Gospodarki Wodnej – Państwowego Instytutu Badawczego zostały przetworzone.

Dane źródłowe można odnaleźć na stronie https://dane.imgw.pl